createdAt,value
2017-04-28T00:00:12.050Z,2.7
2017-04-28T00:01:15.097Z,2.8
2017-04-28T00:02:17.585Z,2.8
2017-04-28T00:03:20.036Z,2.8
2017-04-28T00:04:22.840Z,2.8
2017-04-28T00:05:25.376Z,2.6
2017-04-28T00:06:28.477Z,2.7
2017-04-28T00:07:32.510Z,2.7
2017-04-28T00:08:35.008Z,2.9
2017-04-28T00:09:38.121Z,2.9
2017-04-28T00:10:40.518Z,2.9
2017-04-28T00:11:43.898Z,2.7
2017-04-28T00:12:46.378Z,2.7
2017-04-28T00:13:49.530Z,2.9
2017-04-28T00:14:51.922Z,2.8
2017-04-28T00:15:54.402Z,2.6
2017-04-28T00:16:56.796Z,2.5
2017-04-28T00:17:59.295Z,2.5
2017-04-28T00:19:01.675Z,2.4
2017-04-28T00:20:05.561Z,2.4
2017-04-28T00:21:08.527Z,2.5
2017-04-28T00:22:11.027Z,2.5
2017-04-28T00:23:13.432Z,2.6
2017-04-28T00:24:18.638Z,2.7
2017-04-28T00:25:20.989Z,2.9
2017-04-28T00:26:23.455Z,3
2017-04-28T00:27:25.992Z,2.9
2017-04-28T00:28:28.438Z,2.8
2017-04-28T00:29:30.828Z,2.6
2017-04-28T00:30:34.232Z,2.5
2017-04-28T00:31:36.792Z,2.5
2017-04-28T00:32:39.201Z,2.5
2017-04-28T00:33:41.716Z,2.5
2017-04-28T00:34:44.152Z,2.3
2017-04-28T00:35:46.614Z,2.4
2017-04-28T00:36:49.104Z,2.6
2017-04-28T00:37:51.545Z,2.6
2017-04-28T00:38:54.002Z,2.6
2017-04-28T00:39:56.452Z,2.5
2017-04-28T00:40:58.981Z,2.7
2017-04-28T00:42:01.530Z,2.8
2017-04-28T00:43:03.928Z,2.8
2017-04-28T00:44:07.840Z,3
2017-04-28T00:45:11.401Z,2.8
2017-04-28T00:46:14.253Z,2.7
2017-04-28T00:47:17.322Z,2.5
2017-04-28T00:48:19.751Z,2.5
2017-04-28T00:49:22.229Z,2.4
2017-04-28T00:50:24.664Z,2.5
2017-04-28T00:51:27.152Z,2.3
2017-04-28T00:52:29.655Z,2.4
2017-04-28T00:53:32.032Z,2.4
2017-04-28T00:54:34.566Z,2.4
2017-04-28T00:55:36.969Z,2.5
2017-04-28T00:56:39.427Z,2.6
2017-04-28T00:57:41.904Z,2.5
2017-04-28T00:58:44.362Z,2.4
2017-04-28T00:59:46.881Z,2.3
2017-04-28T01:00:49.306Z,2.3
2017-04-28T01:01:51.815Z,2.3
2017-04-28T01:02:54.293Z,2.5
2017-04-28T01:03:56.715Z,2.3
2017-04-28T01:04:59.090Z,2.2
2017-04-28T01:06:01.448Z,2.3
2017-04-28T01:07:03.893Z,2.2
2017-04-28T01:08:06.382Z,2
2017-04-28T01:09:08.829Z,2
2017-04-28T01:10:11.240Z,2.4
2017-04-28T01:11:13.653Z,2.6
2017-04-28T01:12:16.029Z,2.6
2017-04-28T01:13:18.430Z,2.5
2017-04-28T01:14:24.166Z,2.5
2017-04-28T01:15:26.579Z,2.5
2017-04-28T01:16:28.948Z,2.4
2017-04-28T01:17:31.380Z,2.3
2017-04-28T01:18:33.784Z,2.3
2017-04-28T01:19:36.206Z,2.2
2017-04-28T01:20:38.586Z,2.1
2017-04-28T01:21:40.984Z,2.3
2017-04-28T01:22:43.373Z,2.3
2017-04-28T01:23:45.801Z,2.2
2017-04-28T01:24:48.216Z,2
2017-04-28T01:25:50.627Z,2.2
2017-04-28T01:26:53.044Z,2.1
2017-04-28T01:27:55.427Z,1.9
2017-04-28T01:28:57.880Z,1.9
2017-04-28T01:30:00.305Z,2
2017-04-28T01:31:02.693Z,2.2
2017-04-28T01:32:05.072Z,2.4
2017-04-28T01:33:07.556Z,2.4
2017-04-28T01:34:09.999Z,2.4
2017-04-28T01:35:12.429Z,2.6
2017-04-28T01:36:14.864Z,2.5
2017-04-28T01:37:17.285Z,2.3
2017-04-28T01:38:19.698Z,2.2
2017-04-28T01:39:22.081Z,2.1
2017-04-28T01:40:24.498Z,2.2
2017-04-28T01:41:27.354Z,2.2
2017-04-28T01:42:29.707Z,2.2
2017-04-28T01:43:32.111Z,2.2
2017-04-28T01:44:38.231Z,2.1
2017-04-28T01:45:40.643Z,2.3
2017-04-28T01:46:43.136Z,2.4
2017-04-28T01:47:45.520Z,2.2
2017-04-28T01:48:47.917Z,2.2
2017-04-28T01:49:50.354Z,2.2
2017-04-28T01:50:52.829Z,2.2
2017-04-28T01:51:55.256Z,2.1
2017-04-28T01:52:57.703Z,2.1
2017-04-28T01:54:00.090Z,2.1
2017-04-28T01:55:02.808Z,2
2017-04-28T01:56:05.218Z,2.1
2017-04-28T01:57:07.592Z,2.1
2017-04-28T01:58:10.011Z,2
2017-04-28T01:59:12.440Z,1.9
2017-04-28T02:00:14.898Z,2
2017-04-28T02:01:17.265Z,1.9
2017-04-28T02:02:19.651Z,2
2017-04-28T02:03:22.023Z,1.9
2017-04-28T02:04:24.433Z,2
2017-04-28T02:05:26.781Z,1.9
2017-04-28T02:06:29.121Z,1.8
2017-04-28T02:07:31.601Z,1.9
2017-04-28T02:08:33.988Z,2
2017-04-28T02:09:36.373Z,2
2017-04-28T02:10:38.797Z,2
2017-04-28T02:11:41.131Z,1.9
2017-04-28T02:12:43.493Z,1.7
2017-04-28T02:13:45.930Z,1.8
2017-04-28T02:14:48.337Z,1.9
2017-04-28T02:16:00.037Z,2
2017-04-28T02:17:02.435Z,1.9
2017-04-28T02:18:04.823Z,1.9
2017-04-28T02:19:07.175Z,1.9
2017-04-28T02:20:09.544Z,2
2017-04-28T02:21:11.907Z,2.2
2017-04-28T02:22:14.256Z,2.2
2017-04-28T02:23:16.651Z,2
2017-04-28T02:24:19.129Z,2
2017-04-28T02:26:34.842Z,1.9
2017-04-28T02:27:37.265Z,1.9
2017-04-28T02:28:39.663Z,2
2017-04-28T02:29:42.090Z,1.9
2017-04-28T02:30:44.488Z,1.9
2017-04-28T02:31:46.887Z,1.7
2017-04-28T02:32:49.294Z,1.7
2017-04-28T02:33:51.664Z,1.8
2017-04-28T02:34:54.050Z,1.8
2017-04-28T02:35:56.471Z,1.7
2017-04-28T02:36:58.840Z,1.9
2017-04-28T02:38:01.240Z,2.1
2017-04-28T02:39:03.640Z,2.2
2017-04-28T02:40:06.065Z,1.9
2017-04-28T02:41:08.466Z,2
2017-04-28T02:42:10.900Z,2
2017-04-28T02:43:13.320Z,1.9
2017-04-28T02:44:15.749Z,1.8
2017-04-28T02:45:18.246Z,1.6
2017-04-28T02:46:20.629Z,1.6
2017-04-28T02:47:22.994Z,1.6
2017-04-28T02:48:25.341Z,1.8
2017-04-28T02:49:27.735Z,1.9
2017-04-28T02:50:30.135Z,1.8
2017-04-28T02:51:32.545Z,1.8
2017-04-28T02:52:34.926Z,1.9
2017-04-28T02:53:37.329Z,2
2017-04-28T02:54:39.745Z,2
2017-04-28T02:55:42.591Z,2.1
2017-04-28T02:56:45.012Z,1.9
2017-04-28T02:57:47.413Z,1.9
2017-04-28T02:58:49.856Z,1.9
2017-04-28T02:59:52.240Z,1.9
2017-04-28T03:00:54.655Z,2
2017-04-28T03:01:57.021Z,1.9
2017-04-28T03:02:59.474Z,1.9
2017-04-28T03:04:01.876Z,1.8
2017-04-28T03:05:04.288Z,1.7
2017-04-28T03:06:06.683Z,1.8
2017-04-28T03:07:09.114Z,1.6
2017-04-28T03:08:11.546Z,1.5
2017-04-28T03:09:13.927Z,1.6
2017-04-28T03:10:16.328Z,1.5
2017-04-28T03:11:18.800Z,1.7
2017-04-28T03:12:21.192Z,1.8
2017-04-28T03:13:23.561Z,1.7
2017-04-28T03:14:25.969Z,1.6
2017-04-28T03:15:28.421Z,1.6
2017-04-28T03:16:30.794Z,1.7
2017-04-28T03:17:33.169Z,1.8
2017-04-28T03:18:35.557Z,1.9
2017-04-28T03:19:37.956Z,1.9
2017-04-28T03:20:40.357Z,1.8
2017-04-28T03:21:42.725Z,1.9
2017-04-28T03:22:45.107Z,2
2017-04-28T03:23:47.483Z,1.9
2017-04-28T03:24:49.860Z,1.8
2017-04-28T03:25:52.322Z,1.7
2017-04-28T03:26:54.738Z,1.7
2017-04-28T03:27:57.073Z,1.6
2017-04-28T03:28:59.520Z,1.6
2017-04-28T03:30:01.911Z,1.6
2017-04-28T03:31:04.289Z,1.6
2017-04-28T03:32:06.683Z,1.5
2017-04-28T03:33:09.100Z,1.5
2017-04-28T03:34:11.848Z,1.4
2017-04-28T03:35:14.209Z,1.3
2017-04-28T03:36:16.577Z,1.4
2017-04-28T03:37:19.016Z,1.3
2017-04-28T03:38:21.400Z,1.2
2017-04-28T03:39:23.796Z,1.1
2017-04-28T03:40:26.196Z,1.2
2017-04-28T03:41:28.589Z,1.2
2017-04-28T03:42:30.947Z,1.3
2017-04-28T03:43:33.333Z,1.1
2017-04-28T03:44:35.746Z,1.3
2017-04-28T03:45:38.257Z,1.5
2017-04-28T03:46:40.679Z,1.7
2017-04-28T03:47:43.225Z,1.6
2017-04-28T03:48:45.678Z,1.4
2017-04-28T03:49:48.077Z,1.3
2017-04-28T03:50:50.485Z,1.2
2017-04-28T03:51:52.877Z,1.2
2017-04-28T03:52:55.256Z,1.4
2017-04-28T03:53:57.642Z,1.5
2017-04-28T03:55:00.036Z,1.5
2017-04-28T03:56:02.437Z,1.6
2017-04-28T03:57:04.873Z,1.7
2017-04-28T03:58:07.317Z,1.9
2017-04-28T03:59:09.631Z,1.8
2017-04-28T04:00:12.575Z,1.6
2017-04-28T04:01:14.981Z,1.6
2017-04-28T04:02:17.378Z,1.6
2017-04-28T04:03:19.774Z,1.6
2017-04-28T04:04:22.232Z,1.5
2017-04-28T04:05:24.723Z,1.5
2017-04-28T04:06:27.206Z,1.5
2017-04-28T04:07:29.684Z,1.4
2017-04-28T04:08:32.149Z,1.5
2017-04-28T04:09:34.613Z,1.7
2017-04-28T04:10:37.052Z,1.7
2017-04-28T04:11:39.489Z,1.7
2017-04-28T04:12:41.872Z,1.7
2017-04-28T04:13:44.264Z,1.5
2017-04-28T04:14:46.733Z,1.5
2017-04-28T04:15:49.229Z,1.7
2017-04-28T04:16:51.617Z,1.9
2017-04-28T04:17:54.225Z,1.8
2017-04-28T04:18:56.682Z,1.8
2017-04-28T04:19:59.216Z,1.7
2017-04-28T04:21:01.705Z,1.7
2017-04-28T04:22:04.157Z,1.7
2017-04-28T04:23:06.540Z,1.7
2017-04-28T04:24:08.936Z,1.7
2017-04-28T04:25:11.376Z,1.8
2017-04-28T04:26:13.830Z,1.9
2017-04-28T04:27:16.266Z,1.7
2017-04-28T04:28:18.672Z,1.7
2017-04-28T04:30:32.465Z,1.8
2017-04-28T04:31:34.888Z,2
2017-04-28T04:32:37.317Z,2
2017-04-28T04:33:39.780Z,2.1
2017-04-28T04:34:42.176Z,2.1
2017-04-28T04:35:44.668Z,2.1
2017-04-28T04:36:47.174Z,2.2
2017-04-28T04:37:49.607Z,2.3
2017-04-28T04:38:52.039Z,2.1
2017-04-28T04:39:54.542Z,2.1
2017-04-28T04:40:56.933Z,2.2
2017-04-28T04:41:59.326Z,2.3
2017-04-28T04:43:01.791Z,2.3
2017-04-28T04:44:04.229Z,2.5
2017-04-28T04:45:06.741Z,2.5
2017-04-28T04:46:09.210Z,2.7
2017-04-28T04:47:11.645Z,2.7
2017-04-28T04:48:14.149Z,2.7
2017-04-28T04:49:16.607Z,2.8
2017-04-28T04:50:19.108Z,2.9
2017-04-28T04:51:21.539Z,2.9
2017-04-28T04:52:24.044Z,3
2017-04-28T04:53:26.561Z,2.9
2017-04-28T04:54:29.169Z,2.9
2017-04-28T04:55:31.586Z,3
2017-04-28T04:56:34.174Z,3
2017-04-28T04:57:36.722Z,2.9
2017-04-28T04:58:39.234Z,3.1
2017-04-28T04:59:42.516Z,3.2
2017-04-28T05:00:44.984Z,3.3
2017-04-28T05:01:47.398Z,3.4
2017-04-28T05:02:49.864Z,3.4
2017-04-28T05:03:52.292Z,3.6
2017-04-28T05:04:54.743Z,3.8
2017-04-28T05:05:57.341Z,3.8
2017-04-28T05:06:59.870Z,4
2017-04-28T05:08:02.371Z,4
2017-04-28T05:09:04.898Z,4.1
2017-04-28T05:10:07.412Z,4.2
2017-04-28T05:11:09.882Z,4.2
2017-04-28T05:12:12.312Z,4.3
2017-04-28T05:13:14.832Z,4.5
2017-04-28T05:14:17.483Z,4.8
2017-04-28T05:15:20.256Z,5.2
2017-04-28T05:16:22.722Z,5.5
2017-04-28T05:17:25.531Z,5.5
2017-04-28T05:18:28.693Z,5.6
2017-04-28T05:19:31.618Z,5.8
2017-04-28T05:20:34.281Z,5.9
2017-04-28T05:21:36.795Z,6.2
2017-04-28T05:22:39.401Z,6.4
2017-04-28T05:23:42.064Z,6.8
2017-04-28T05:24:44.700Z,7.1
2017-04-28T05:25:47.333Z,7.5
2017-04-28T05:26:49.952Z,8.1
2017-04-28T05:27:52.496Z,7.8
2017-04-28T05:28:55.042Z,7.1
2017-04-28T05:29:58.801Z,6.7
2017-04-28T05:31:01.936Z,6.9
2017-04-28T05:32:04.403Z,7.1
2017-04-28T05:33:06.869Z,7.2
2017-04-28T05:34:09.499Z,7.4
2017-04-28T05:35:12.304Z,7.2
2017-04-28T05:36:15.065Z,7.7
2017-04-28T05:37:17.548Z,7.8
2017-04-28T05:38:20.062Z,8.1
2017-04-28T05:39:22.720Z,8.1
2017-04-28T05:40:25.390Z,8.5
2017-04-28T05:41:28.011Z,8.6
2017-04-28T05:42:30.842Z,9.3
2017-04-28T05:43:33.480Z,9.6
2017-04-28T05:44:36.013Z,9.6
2017-04-28T05:45:38.507Z,9.3
2017-04-28T05:46:40.992Z,9.3
2017-04-28T05:47:43.572Z,9.6
2017-04-28T05:48:46.619Z,9.8
2017-04-28T05:49:49.264Z,9.7
2017-04-28T05:50:51.764Z,9.6
2017-04-28T05:51:54.412Z,9.7
2017-04-28T05:52:57.005Z,10
2017-04-28T05:53:59.429Z,10.4
2017-04-28T05:55:01.975Z,10.6
2017-04-28T05:56:04.529Z,10.8
2017-04-28T05:57:07.268Z,11
2017-04-28T05:58:09.683Z,10.9
2017-04-28T05:59:12.345Z,11
2017-04-28T06:00:14.826Z,11.2
2017-04-28T06:01:17.946Z,11.1
2017-04-28T06:02:20.437Z,11.3
2017-04-28T06:03:22.867Z,11.2
2017-04-28T06:04:25.295Z,11.3
2017-04-28T06:05:27.851Z,11.2
2017-04-28T06:06:30.388Z,11.5
2017-04-28T06:07:32.970Z,11.5
2017-04-28T06:08:35.545Z,12.1
2017-04-28T06:09:38.054Z,11.9
2017-04-28T06:10:40.546Z,11.7
2017-04-28T06:11:43.048Z,11.5
2017-04-28T06:12:45.537Z,11.6
2017-04-28T06:13:48.045Z,11.8
2017-04-28T06:14:50.492Z,11.9
2017-04-28T06:15:53.103Z,12.3
2017-04-28T06:16:59.354Z,12.2
2017-04-28T06:18:01.908Z,12.7
2017-04-28T06:19:04.582Z,12.7
2017-04-28T06:20:07.098Z,12.6
2017-04-28T06:21:09.704Z,12.8
2017-04-28T06:22:12.333Z,12.5
2017-04-28T06:23:15.129Z,12.8
2017-04-28T06:24:17.674Z,12.4
2017-04-28T06:25:20.228Z,12.4
2017-04-28T06:26:22.825Z,12.6
2017-04-28T06:27:25.437Z,12.3
2017-04-28T06:28:28.684Z,12.3
2017-04-28T06:29:31.338Z,12.3
2017-04-28T06:30:33.846Z,12.4
2017-04-28T06:31:37.400Z,12.6
2017-04-28T06:32:39.856Z,12.6
2017-04-28T06:34:54.952Z,13.1
2017-04-28T06:35:57.493Z,13.6
2017-04-28T06:37:00.109Z,13.2
2017-04-28T06:38:03.373Z,13.7
2017-04-28T06:39:06.663Z,13.7
2017-04-28T06:40:09.190Z,13.9
2017-04-28T06:41:11.723Z,14
2017-04-28T06:42:14.597Z,14.1
2017-04-28T06:43:17.899Z,14.4
2017-04-28T06:44:20.424Z,14.7
2017-04-28T06:45:23.118Z,14.4
2017-04-28T06:46:25.976Z,14.2
2017-04-28T06:47:29.414Z,14.1
2017-04-28T06:48:32.187Z,13.8
2017-04-28T06:49:35.528Z,14.6
2017-04-28T06:50:38.786Z,14.4
2017-04-28T06:51:41.358Z,14.5
2017-04-28T06:52:43.906Z,15.4
2017-04-28T06:53:46.372Z,16.4
2017-04-28T06:54:48.962Z,17.1
2017-04-28T06:55:52.099Z,17.3
2017-04-28T06:56:56.296Z,17.8
2017-04-28T06:57:59.133Z,17.9
2017-04-28T06:59:03.122Z,18.6
2017-04-28T07:00:06.375Z,19.1
2017-04-28T07:01:10.083Z,18.6
2017-04-28T07:02:12.738Z,19.5
2017-04-28T07:03:15.338Z,19.7
2017-04-28T07:04:17.890Z,19.4
2017-04-28T07:05:20.513Z,19.9
2017-04-28T07:06:23.078Z,20.7
2017-04-28T07:07:25.557Z,20.3
2017-04-28T07:08:29.274Z,20.9
2017-04-28T07:09:31.785Z,20.7
2017-04-28T07:10:34.382Z,20.5
2017-04-28T07:11:36.865Z,20.2
2017-04-28T07:12:39.422Z,21.9
2017-04-28T07:13:42.989Z,21.9
2017-04-28T07:14:45.656Z,21.6
2017-04-28T07:15:48.199Z,21.5
2017-04-28T07:16:50.740Z,21.6
2017-04-28T07:17:53.300Z,22.2
2017-04-28T07:18:55.771Z,21.1
2017-04-28T07:19:58.324Z,21.2
2017-04-28T07:21:00.970Z,21.8
2017-04-28T07:22:03.681Z,21.4
2017-04-28T07:23:06.236Z,21.2
2017-04-28T07:24:09.194Z,21.8
2017-04-28T07:25:11.706Z,22.4
2017-04-28T07:26:14.216Z,21.4
2017-04-28T07:27:18.082Z,21.2
2017-04-28T07:28:21.037Z,21.4
2017-04-28T07:29:24.013Z,20.9
2017-04-28T07:30:26.622Z,21.6
2017-04-28T07:31:29.453Z,21.1
2017-04-28T07:32:34.285Z,21.4
2017-04-28T07:33:38.039Z,20.3
2017-04-28T07:34:41.873Z,21.5
2017-04-28T07:35:45.732Z,21.2
2017-04-28T07:36:48.705Z,22.3
2017-04-28T07:37:52.673Z,22.6
2017-04-28T07:38:55.962Z,22.1
2017-04-28T07:39:58.982Z,22
2017-04-28T07:41:01.546Z,22.2
2017-04-28T07:42:04.149Z,22.6
2017-04-28T07:43:08.035Z,22.8
2017-04-28T07:44:10.766Z,22
2017-04-28T07:45:13.556Z,21.5
2017-04-28T07:46:16.070Z,21
2017-04-28T07:47:19.871Z,21.8
2017-04-28T07:48:22.927Z,23.1
2017-04-28T07:49:27.188Z,22.9
2017-04-28T07:50:32.823Z,21.4
2017-04-28T07:51:35.500Z,21.3
2017-04-28T07:52:38.636Z,22
2017-04-28T07:53:41.161Z,22.8
2017-04-28T07:54:43.712Z,22.6
2017-04-28T07:55:47.850Z,22
2017-04-28T07:56:50.388Z,22.8
2017-04-28T07:57:52.917Z,22.5
2017-04-28T07:58:55.419Z,22.7
2017-04-28T07:59:58.046Z,21.5
2017-04-28T08:01:00.745Z,21.4
2017-04-28T08:02:03.635Z,20.9
2017-04-28T08:03:06.640Z,20.1
2017-04-28T08:04:09.276Z,20.4
2017-04-28T08:05:11.796Z,21.6
2017-04-28T08:06:14.917Z,22.2
2017-04-28T08:07:17.540Z,21.8
2017-04-28T08:08:20.115Z,22.2
2017-04-28T08:09:23.277Z,22.5
2017-04-28T08:10:27.137Z,22.8
2017-04-28T08:11:29.628Z,21.5
2017-04-28T08:12:34.233Z,21.1
2017-04-28T08:13:37.416Z,21.6
2017-04-28T08:14:40.563Z,22
2017-04-28T08:15:43.715Z,23.4
2017-04-28T08:16:47.015Z,24.5
2017-04-28T08:17:51.152Z,24
2017-04-28T08:18:54.293Z,23.7
2017-04-28T08:19:56.984Z,24.3
2017-04-28T08:20:59.817Z,22.9
2017-04-28T08:22:03.700Z,23
2017-04-28T08:23:06.243Z,23
2017-04-28T08:24:09.981Z,21.8
2017-04-28T08:25:12.391Z,23.7
2017-04-28T08:26:15.021Z,23.3
2017-04-28T08:27:18.352Z,23.6
2017-04-28T08:29:32.842Z,22
2017-04-28T08:30:36.190Z,23.4
2017-04-28T08:31:40.074Z,22.7
2017-04-28T08:32:46.426Z,23.6
2017-04-28T08:33:49.363Z,23.5
2017-04-28T08:34:52.714Z,24.5
2017-04-28T08:35:56.410Z,23.5
2017-04-28T08:36:59.792Z,22.3
2017-04-28T08:38:03.647Z,22
2017-04-28T08:39:07.015Z,23
2017-04-28T08:40:10.830Z,24.4
2017-04-28T08:41:16.101Z,22.2
2017-04-28T08:42:20.549Z,20.6
2017-04-28T08:43:24.598Z,21.6
2017-04-28T08:44:27.325Z,21.9
2017-04-28T08:45:30.013Z,18.6
2017-04-28T08:46:32.696Z,17.3
2017-04-28T08:47:35.324Z,16.6
2017-04-28T08:48:44.179Z,20.1
2017-04-28T08:49:46.743Z,20.5
2017-04-28T08:50:49.339Z,21.7
2017-04-28T08:51:52.394Z,22.2
2017-04-28T08:52:55.020Z,20.1
2017-04-28T08:53:57.697Z,17.5
2017-04-28T08:55:01.282Z,16.1
2017-04-28T08:56:04.052Z,15.6
2017-04-28T08:57:11.377Z,17.2
2017-04-28T08:58:13.904Z,19.7
2017-04-28T08:59:16.935Z,20.9
2017-04-28T09:00:20.330Z,21.5
2017-04-28T09:01:23.033Z,22.2
2017-04-28T09:02:25.559Z,20.9
2017-04-28T09:03:28.785Z,18.8
2017-04-28T09:04:32.237Z,17.3
2017-04-28T09:05:35.855Z,15.7
2017-04-28T09:06:39.463Z,16.9
2017-04-28T09:07:42.601Z,20.3
2017-04-28T09:08:45.170Z,21.9
2017-04-28T09:09:49.348Z,22.1
2017-04-28T09:10:53.528Z,21.5
2017-04-28T09:11:58.265Z,21.9
2017-04-28T09:13:00.856Z,22.2
2017-04-28T09:14:04.208Z,23
2017-04-28T09:15:06.979Z,21.6
2017-04-28T09:16:09.993Z,21.1
2017-04-28T09:17:12.641Z,22.4
2017-04-28T09:18:15.297Z,21.7
2017-04-28T09:19:18.023Z,22
2017-04-28T09:20:21.309Z,21.7
2017-04-28T09:21:25.869Z,20.9
2017-04-28T09:22:28.420Z,17.8
2017-04-28T09:23:31.849Z,17.2
2017-04-28T09:24:34.441Z,16.5
2017-04-28T09:25:37.485Z,15.6
2017-04-28T09:26:41.882Z,15.8
2017-04-28T09:27:45.196Z,19.1
2017-04-28T09:28:50.055Z,19.1
2017-04-28T09:29:52.610Z,21
2017-04-28T09:30:56.957Z,22.2
2017-04-28T09:31:59.685Z,23.2
2017-04-28T09:33:02.903Z,23.4
2017-04-28T09:34:07.418Z,21.9
2017-04-28T09:35:10.942Z,17.7
2017-04-28T09:36:16.940Z,19.5
2017-04-28T09:37:19.928Z,21
2017-04-28T09:38:22.932Z,21.7
2017-04-28T09:39:26.152Z,20.5
2017-04-28T09:40:29.101Z,18.7
2017-04-28T09:41:33.572Z,19.9
2017-04-28T09:42:36.365Z,18.5
2017-04-28T09:43:39.040Z,17.1
2017-04-28T09:44:41.751Z,16.6
2017-04-28T09:45:44.938Z,15.9
2017-04-28T09:46:51.201Z,15.8
2017-04-28T09:47:54.569Z,16.8
2017-04-28T09:49:00.421Z,18.3
2017-04-28T09:50:03.996Z,20.2
2017-04-28T09:51:07.965Z,20.3
2017-04-28T09:52:10.443Z,19.8
2017-04-28T09:53:15.064Z,21.3
2017-04-28T09:54:18.768Z,21.5
2017-04-28T09:55:23.387Z,20.1
2017-04-28T09:56:27.144Z,22
2017-04-28T09:57:30.362Z,22
2017-04-28T09:58:32.931Z,20.4
2017-04-28T09:59:37.765Z,18.5
2017-04-28T10:00:40.659Z,17
2017-04-28T10:01:43.461Z,16.6
2017-04-28T10:02:47.575Z,16.2
2017-04-28T10:03:50.355Z,15.8
2017-04-28T10:04:53.889Z,15.9
2017-04-28T10:05:57.812Z,15.4
2017-04-28T10:07:03.736Z,15.1
2017-04-28T10:08:09.869Z,15
2017-04-28T10:09:17.678Z,14.9
2017-04-28T10:10:21.525Z,14.8
2017-04-28T10:11:24.833Z,14.6
2017-04-28T10:12:27.923Z,14.3
2017-04-28T10:13:31.328Z,14.2
2017-04-28T10:14:35.592Z,14.1
2017-04-28T10:15:38.306Z,14.4
2017-04-28T10:16:41.109Z,14.6
2017-04-28T10:17:44.485Z,14.3
2017-04-28T10:18:48.616Z,14.7
2017-04-28T10:19:52.078Z,15.6
2017-04-28T10:20:57.840Z,15.8
2017-04-28T10:22:03.045Z,16.2
2017-04-28T10:23:06.485Z,16.1
2017-04-28T10:24:10.008Z,17.1
2017-04-28T10:25:13.631Z,17.9
2017-04-28T10:26:17.535Z,18.3
2017-04-28T10:27:20.734Z,18.1
2017-04-28T10:28:23.247Z,18.6
2017-04-28T10:29:26.945Z,18.5
2017-04-28T10:30:30.791Z,17.4
2017-04-28T10:31:34.895Z,17.8
2017-04-28T10:32:37.433Z,16.8
2017-04-28T10:33:41.385Z,18
2017-04-28T10:34:45.425Z,18.2
2017-04-28T10:35:52.721Z,17.4
2017-04-28T10:36:56.378Z,16.5
2017-04-28T10:37:59.854Z,16.6
2017-04-28T10:39:05.437Z,17
2017-04-28T10:40:08.876Z,16.4
2017-04-28T10:41:14.339Z,15.8
2017-04-28T10:42:17.362Z,15.6
2017-04-28T10:43:20.645Z,15.2
2017-04-28T10:44:24.500Z,15.1
2017-04-28T10:45:29.276Z,15
2017-04-28T10:46:35.013Z,16
2017-04-28T10:47:38.694Z,16.6
2017-04-28T10:48:41.885Z,17.1
2017-04-28T10:49:49.681Z,17.7
2017-04-28T10:50:58.969Z,17.8
2017-04-28T10:52:03.202Z,17.7
2017-04-28T10:53:08.181Z,18.2
2017-04-28T10:54:14.293Z,18.1
2017-04-28T10:55:18.228Z,18.4
2017-04-28T10:56:22.664Z,17.6
2017-04-28T10:57:26.708Z,17.8
2017-04-28T10:58:29.475Z,17.6
2017-04-28T10:59:33.481Z,16.6
2017-04-28T11:00:38.226Z,16.6
2017-04-28T11:01:41.505Z,17.4
2017-04-28T11:02:44.353Z,18
2017-04-28T11:03:51.766Z,17.2
2017-04-28T11:04:55.319Z,16
2017-04-28T11:05:58.034Z,16.9
2017-04-28T11:07:02.062Z,17
2017-04-28T11:08:06.985Z,16.7
2017-04-28T11:09:09.686Z,16.5
2017-04-28T11:10:13.609Z,16.1
2017-04-28T11:11:17.756Z,16.1
2017-04-28T11:12:22.027Z,16.6
2017-04-28T11:13:25.252Z,16.5
2017-04-28T11:14:29.355Z,16.6
2017-04-28T11:15:35.159Z,17.2
2017-04-28T11:16:40.480Z,17
2017-04-28T11:17:45.237Z,16.2
2017-04-28T11:18:53.945Z,16.5
2017-04-28T11:20:01.005Z,16.1
2017-04-28T11:21:07.275Z,16.7
2017-04-28T11:22:11.896Z,16.5
2017-04-28T11:23:15.104Z,17.1
2017-04-28T11:24:18.438Z,17.7
2017-04-28T11:25:21.810Z,18
2017-04-28T11:26:27.841Z,18.4
2017-04-28T11:27:32.200Z,18.3
2017-04-28T11:28:35.457Z,18.3
2017-04-28T11:29:41.678Z,17.9
2017-04-28T11:30:46.479Z,17.4
2017-04-28T11:31:49.739Z,17.3
2017-04-28T11:32:53.554Z,17
2017-04-28T11:33:56.694Z,16.7
2017-04-28T11:35:05.253Z,15.8
2017-04-28T11:36:08.888Z,14.7
2017-04-28T11:37:12.402Z,15.5
2017-04-28T11:38:15.694Z,15.3
2017-04-28T11:39:18.344Z,15.6
2017-04-28T11:40:21.579Z,15.3
2017-04-28T11:41:24.888Z,15.2
2017-04-28T11:42:30.924Z,15.4
2017-04-28T11:43:36.128Z,14.6
2017-04-28T11:44:41.241Z,13.6
2017-04-28T11:45:46.341Z,13.9
2017-04-28T11:46:55.973Z,15
2017-04-28T11:48:00.317Z,15
2017-04-28T11:49:04.157Z,15.2
2017-04-28T11:50:08.521Z,15.5
2017-04-28T11:51:11.657Z,15.4
2017-04-28T11:52:19.722Z,15.2
2017-04-28T11:53:23.510Z,14.9
2017-04-28T11:54:29.772Z,15.2
2017-04-28T11:55:32.922Z,15.2
2017-04-28T11:56:38.029Z,15.3
2017-04-28T11:57:41.238Z,15.5
2017-04-28T11:58:44.709Z,15.3
2017-04-28T11:59:51.602Z,15.4
2017-04-28T12:00:56.734Z,14.5
2017-04-28T12:02:00.423Z,14.4
2017-04-28T12:03:05.567Z,14.8
2017-04-28T12:04:09.710Z,14.9
2017-04-28T12:05:12.184Z,14.3
2017-04-28T12:06:14.837Z,14.7
2017-04-28T12:07:18.057Z,15
2017-04-28T12:10:53.535Z,14.9
2017-04-28T12:11:58.649Z,15.1
2017-04-28T12:13:06.985Z,14.7
2017-04-28T12:14:13.052Z,14.9
2017-04-28T12:15:18.193Z,15
2017-04-28T12:16:26.622Z,14.9
2017-04-28T12:17:32.289Z,14.7
2017-04-28T12:18:39.549Z,15.2
2017-04-28T12:19:44.434Z,15.3
2017-04-28T12:20:48.165Z,15.2
2017-04-28T12:21:51.425Z,15.2
2017-04-28T12:22:54.799Z,15.2
2017-04-28T12:23:57.537Z,15.1
2017-04-28T12:25:01.758Z,15.2
2017-04-28T12:26:07.137Z,15.1
2017-04-28T12:27:15.236Z,15.3
2017-04-28T12:28:20.418Z,15.4
2017-04-28T12:29:25.570Z,15.7
2017-04-28T12:30:31.626Z,15.9
2017-04-28T12:31:35.694Z,16.2
2017-04-28T12:32:42.436Z,15.9
2017-04-28T12:33:45.016Z,15.7
2017-04-28T12:34:49.279Z,15.5
2017-04-28T12:35:52.305Z,15.6
2017-04-28T12:36:59.250Z,15.4
2017-04-28T12:38:01.799Z,15.4
2017-04-28T12:39:05.820Z,15.1
2017-04-28T12:40:13.558Z,15.5
2017-04-28T12:41:20.502Z,15.7
2017-04-28T12:42:25.143Z,15.6
2017-04-28T12:43:28.754Z,16.2
2017-04-28T12:44:32.567Z,16.8
2017-04-28T12:45:36.233Z,17
2017-04-28T12:46:40.481Z,16.5
2017-04-28T12:47:45.228Z,16.6
2017-04-28T12:48:50.897Z,16.6
2017-04-28T12:49:56.841Z,16.7
2017-04-28T12:51:02.233Z,17.1
2017-04-28T12:52:07.182Z,17
2017-04-28T12:53:12.670Z,16.1
2017-04-28T12:54:15.846Z,16.2
2017-04-28T12:55:24.118Z,15.9
2017-04-28T12:56:27.972Z,16.2
2017-04-28T12:57:33.003Z,15.8
2017-04-28T12:58:38.890Z,15.4
2017-04-28T12:59:45.740Z,15.1
2017-04-28T13:00:54.774Z,15.4
2017-04-28T13:02:00.694Z,16
2017-04-28T13:03:06.897Z,16.2
2017-04-28T13:04:10.886Z,15.9
2017-04-28T13:05:14.350Z,15.7
2017-04-28T13:06:19.142Z,15.6
2017-04-28T13:07:22.361Z,15.6
2017-04-28T13:08:27.607Z,15.4
2017-04-28T13:09:40.299Z,15.3
2017-04-28T13:10:43.944Z,15
2017-04-28T13:11:48.055Z,15.2
2017-04-28T13:12:55.179Z,15.2
2017-04-28T13:14:01.165Z,15
2017-04-28T13:15:04.188Z,15
2017-04-28T13:16:08.101Z,14.8
2017-04-28T13:17:13.780Z,14.7
2017-04-28T13:18:16.985Z,14.9
2017-04-28T13:19:22.189Z,15
2017-04-28T13:20:27.216Z,14.8
2017-04-28T13:21:31.383Z,14.2
2017-04-28T13:22:37.987Z,14.6
2017-04-28T13:23:43.405Z,14.5
2017-04-28T13:24:46.475Z,14.8
2017-04-28T13:25:50.661Z,14.8
2017-04-28T13:26:55.878Z,15
2017-04-28T13:28:02.754Z,14.7
2017-04-28T13:29:08.659Z,14.8
2017-04-28T13:30:12.866Z,14.6
2017-04-28T13:31:16.657Z,14.6
2017-04-28T13:32:20.862Z,14.7
2017-04-28T13:33:25.791Z,14.8
2017-04-28T13:34:29.407Z,14.3
2017-04-28T13:35:35.031Z,14.6
2017-04-28T13:36:40.018Z,14.4
2017-04-28T13:37:48.958Z,14.1
2017-04-28T13:38:56.097Z,14.3
2017-04-28T13:40:00.959Z,14.4
2017-04-28T13:41:09.121Z,14.6
2017-04-28T13:42:14.365Z,14.5
2017-04-28T13:43:21.008Z,14.2
2017-04-28T13:44:24.920Z,14.3
2017-04-28T13:45:27.521Z,14.3
2017-04-28T13:46:32.663Z,14.3
2017-04-28T13:47:36.950Z,14.1
2017-04-28T13:48:43.981Z,13.8
2017-04-28T13:49:48.018Z,14.1
2017-04-28T13:50:52.560Z,14.2
2017-04-28T13:51:57.607Z,13.9
2017-04-28T13:53:09.369Z,14.3
2017-04-28T13:54:18.711Z,14.3
2017-04-28T13:55:23.143Z,14.4
2017-04-28T13:56:27.344Z,14.3
2017-04-28T13:57:34.660Z,14.6
2017-04-28T13:58:41.385Z,14.5
2017-04-28T13:59:47.869Z,14.2
2017-04-28T14:00:52.028Z,14.2
2017-04-28T14:01:58.602Z,14.2
2017-04-28T14:03:09.300Z,14.3
2017-04-28T14:04:15.475Z,14.3
2017-04-28T14:05:20.048Z,14.5
2017-04-28T14:06:26.023Z,14.7
2017-04-28T14:07:33.255Z,14.7
2017-04-28T14:08:39.662Z,14.5
2017-04-28T14:09:46.061Z,14.7
2017-04-28T14:10:49.519Z,14.5
2017-04-28T14:11:53.370Z,14.5
2017-04-28T14:12:59.750Z,14.6
2017-04-28T14:14:05.521Z,14.4
2017-04-28T14:15:11.852Z,14.3
2017-04-28T14:16:24.951Z,14.1
2017-04-28T14:17:31.166Z,14.3
2017-04-28T14:18:35.569Z,14.4
2017-04-28T14:19:40.987Z,14.3
2017-04-28T14:20:46.523Z,14.4
2017-04-28T14:21:51.522Z,14.6
2017-04-28T14:22:55.548Z,14.6
2017-04-28T14:23:59.789Z,14.6
2017-04-28T14:25:03.155Z,14.5
2017-04-28T14:26:07.686Z,14.3
2017-04-28T14:27:12.971Z,14.4
2017-04-28T14:28:20.087Z,14.2